createdAt,value
2018-11-29T00:00:00.921Z,47.17
2018-11-29T00:04:03.381Z,44.33
2018-11-29T00:08:05.855Z,47.20
2018-11-29T00:12:08.334Z,48.33
2018-11-29T00:16:10.717Z,46.57
2018-11-29T00:20:16.051Z,47.93
2018-11-29T00:24:18.408Z,48.33
2018-11-29T00:28:20.745Z,49.43
2018-11-29T00:32:23.125Z,47.27
2018-11-29T00:36:25.482Z,47.70
2018-11-29T00:40:27.870Z,46.00
2018-11-29T00:44:30.395Z,44.70
2018-11-29T00:48:32.741Z,48.80
2018-11-29T00:52:35.356Z,50.73
2018-11-29T00:56:37.750Z,47.30
2018-11-29T01:00:40.273Z,53.73
2018-11-29T01:04:42.891Z,47.57
2018-11-29T01:08:45.327Z,50.93
2018-11-29T01:12:48.317Z,46.60
2018-11-29T01:16:50.731Z,45.17
2018-11-29T01:20:53.086Z,46.50
2018-11-29T01:24:55.437Z,49.20
2018-11-29T01:28:57.751Z,48.37
2018-11-29T01:33:00.157Z,54.60
2018-11-29T01:37:02.542Z,50.57
2018-11-29T01:41:05.008Z,49.77
2018-11-29T01:45:07.382Z,55.70
2018-11-29T01:49:09.715Z,50.37
2018-11-29T01:53:12.062Z,48.93
2018-11-29T01:57:14.370Z,54.50
2018-11-29T02:01:16.792Z,53.53
2018-11-29T02:05:19.171Z,51.83
2018-11-29T02:09:21.533Z,53.83
2018-11-29T02:13:23.900Z,51.67
2018-11-29T02:17:26.228Z,49.33
2018-11-29T02:21:28.600Z,49.10
2018-11-29T02:25:30.965Z,49.93
2018-11-29T02:29:33.316Z,47.20
2018-11-29T02:33:35.710Z,49.40
2018-11-29T02:37:38.062Z,49.33
2018-11-29T02:41:40.422Z,49.23
2018-11-29T02:45:42.770Z,52.87
2018-11-29T02:49:45.159Z,50.67
2018-11-29T02:53:47.547Z,49.57
2018-11-29T02:57:50.182Z,52.27
2018-11-29T03:01:52.609Z,50.33
2018-11-29T03:05:54.969Z,49.87
2018-11-29T03:09:57.397Z,51.10
2018-11-29T03:13:59.776Z,49.07
2018-11-29T03:18:02.107Z,49.63
2018-11-29T03:22:04.620Z,48.67
2018-11-29T03:26:06.971Z,47.17
2018-11-29T03:30:18.702Z,50.63
2018-11-29T03:34:21.099Z,49.40
2018-11-29T03:38:23.460Z,54.60
2018-11-29T03:42:25.842Z,55.00
2018-11-29T03:46:28.131Z,50.97
2018-11-29T03:50:30.498Z,53.93
2018-11-29T03:54:32.846Z,50.03
2018-11-29T03:58:35.311Z,51.37
2018-11-29T04:02:37.639Z,51.53
2018-11-29T04:06:39.995Z,51.10
2018-11-29T04:10:42.386Z,50.73
2018-11-29T04:14:44.761Z,49.60
2018-11-29T04:18:47.146Z,52.63
2018-11-29T04:22:49.545Z,51.03
2018-11-29T04:26:51.907Z,51.70
2018-11-29T04:30:54.256Z,51.07
2018-11-29T04:34:56.834Z,48.43
2018-11-29T04:38:59.174Z,48.43
2018-11-29T04:43:01.555Z,54.87
2018-11-29T04:47:03.942Z,52.88
2018-11-29T04:51:05.954Z,50.40
2018-11-29T04:55:09.179Z,47.97
2018-11-29T04:59:11.615Z,47.27
2018-11-29T05:03:13.996Z,47.10
2018-11-29T05:07:16.374Z,45.97
2018-11-29T05:11:18.720Z,47.70
2018-11-29T05:15:21.050Z,45.03
2018-11-29T05:19:23.432Z,46.17
2018-11-29T05:23:25.774Z,49.70
2018-11-29T05:27:28.134Z,50.77
2018-11-29T05:31:30.454Z,52.30
2018-11-29T05:35:32.856Z,47.87
2018-11-29T05:39:35.155Z,47.60
2018-11-29T05:43:37.523Z,49.70
2018-11-29T05:47:39.834Z,45.80
2018-11-29T05:51:42.200Z,48.27
2018-11-29T05:55:44.550Z,50.27
2018-11-29T05:59:46.903Z,48.03
2018-11-29T06:03:49.239Z,47.70
2018-11-29T06:07:51.583Z,45.43
2018-11-29T06:11:53.881Z,47.73
2018-11-29T06:15:56.199Z,47.07
2018-11-29T06:19:58.510Z,48.23
2018-11-29T06:24:00.792Z,46.57
2018-11-29T06:28:03.203Z,47.40
2018-11-29T06:32:05.660Z,45.80
2018-11-29T06:36:08.221Z,48.00
2018-11-29T06:40:12.313Z,47.80
2018-11-29T06:44:14.654Z,47.97
2018-11-29T06:48:16.990Z,49.00
2018-11-29T06:52:19.250Z,45.90
2018-11-29T06:56:21.612Z,50.03
2018-11-29T07:00:31.557Z,51.00
2018-11-29T07:04:33.895Z,46.70
2018-11-29T07:08:36.255Z,46.23
2018-11-29T07:12:39.518Z,47.00
2018-11-29T07:16:41.888Z,47.37
2018-11-29T07:20:54.322Z,49.00
2018-11-29T07:24:56.623Z,49.57
2018-11-29T07:28:58.960Z,48.27
2018-11-29T07:33:01.343Z,46.33
2018-11-29T07:37:03.695Z,48.80
2018-11-29T07:41:06.144Z,47.90
2018-11-29T07:45:13.213Z,47.93
2018-11-29T07:49:15.554Z,44.70
2018-11-29T07:53:17.897Z,47.37
2018-11-29T07:57:20.224Z,51.73
2018-11-29T08:01:22.684Z,48.50
2018-11-29T08:05:25.102Z,47.50
2018-11-29T08:09:27.474Z,48.30
2018-11-29T08:13:29.782Z,49.50
2018-11-29T08:17:32.122Z,48.63
2018-11-29T08:21:34.543Z,49.20
2018-11-29T08:25:36.872Z,49.30
2018-11-29T08:29:39.202Z,50.63
2018-11-29T08:33:41.569Z,46.60
2018-11-29T08:37:45.102Z,48.60
2018-11-29T08:41:47.491Z,45.23
2018-11-29T08:45:49.833Z,50.03
2018-11-29T08:49:52.179Z,49.30
2018-11-29T08:53:54.538Z,45.50
2018-11-29T08:57:56.894Z,47.43
2018-11-29T09:01:59.364Z,46.00
2018-11-29T09:06:01.718Z,47.33
2018-11-29T09:10:06.024Z,45.77
2018-11-29T09:14:08.401Z,45.43
2018-11-29T09:18:10.766Z,48.30
2018-11-29T09:22:13.119Z,45.93
2018-11-29T09:26:15.502Z,44.67
2018-11-29T09:30:20.598Z,47.93
2018-11-29T09:34:22.951Z,42.07
2018-11-29T09:38:25.288Z,45.70
2018-11-29T09:42:27.663Z,45.23
2018-11-29T09:46:30.036Z,42.50
2018-11-29T09:50:32.358Z,43.93
2018-11-29T09:54:34.737Z,43.43
2018-11-29T09:58:37.098Z,42.77
2018-11-29T10:02:39.486Z,44.83
2018-11-29T10:06:41.822Z,42.00
2018-11-29T10:10:44.186Z,45.13
2018-11-29T10:14:46.553Z,47.90
2018-11-29T10:18:48.861Z,45.73
2018-11-29T10:22:51.242Z,46.17
2018-11-29T10:26:53.661Z,43.77
2018-11-29T10:30:57.481Z,42.97
2018-11-29T10:34:59.783Z,44.97
2018-11-29T10:39:02.246Z,45.27
2018-11-29T10:43:04.713Z,44.50
2018-11-29T10:47:07.073Z,46.77
2018-11-29T10:51:09.398Z,48.10
2018-11-29T10:55:15.710Z,42.33
2018-11-29T10:59:18.043Z,42.37
2018-11-29T11:03:20.942Z,43.37
2018-11-29T11:07:23.292Z,43.80
2018-11-29T11:11:25.711Z,45.00
2018-11-29T11:15:28.142Z,40.50
2018-11-29T11:19:30.469Z,41.20
2018-11-29T11:23:32.803Z,42.70
2018-11-29T11:27:35.156Z,44.60
2018-11-29T11:31:37.523Z,40.93
2018-11-29T11:35:39.875Z,45.50
2018-11-29T11:39:42.540Z,44.20
2018-11-29T11:43:44.626Z,48.83
2018-11-29T11:47:47.077Z,48.00
2018-11-29T11:51:49.397Z,43.87
2018-11-29T11:55:53.705Z,44.83
2018-11-29T11:59:54.023Z,39.83
2018-11-29T12:03:56.395Z,39.73
2018-11-29T12:07:58.777Z,43.80
2018-11-29T12:12:01.226Z,39.33
2018-11-29T12:16:03.803Z,38.30
2018-11-29T12:20:09.363Z,37.53
2018-11-29T12:24:11.726Z,38.83
2018-11-29T12:28:14.071Z,36.00
2018-11-29T12:32:16.346Z,40.17
2018-11-29T12:36:18.706Z,38.73
2018-11-29T12:40:21.087Z,37.90
2018-11-29T12:44:23.440Z,41.27
2018-11-29T12:48:25.787Z,41.03
2018-11-29T12:52:28.146Z,40.60
2018-11-29T12:56:30.548Z,39.87
2018-11-29T13:00:32.946Z,39.90
2018-11-29T13:04:35.596Z,42.97
2018-11-29T13:08:38.188Z,41.03
2018-11-29T13:12:40.606Z,42.10
2018-11-29T13:16:42.944Z,41.00
2018-11-29T13:20:45.266Z,40.97
2018-11-29T13:24:47.681Z,36.97
2018-11-29T13:28:50.049Z,39.90
2018-11-29T13:32:54.472Z,38.20
2018-11-29T13:36:56.868Z,38.37
2018-11-29T13:40:59.226Z,37.30
2018-11-29T13:45:01.625Z,37.70
2018-11-29T13:49:04.616Z,40.20
2018-11-29T13:53:07.071Z,41.07
2018-11-29T13:57:09.427Z,38.90
2018-11-29T14:01:11.773Z,38.17
2018-11-29T14:05:14.279Z,42.90
2018-11-29T14:09:16.687Z,39.63
2018-11-29T14:13:19.059Z,39.13
2018-11-29T14:17:21.432Z,42.73
2018-11-29T14:21:23.836Z,39.23
2018-11-29T14:25:26.261Z,41.57
2018-11-29T14:29:28.650Z,36.67
2018-11-29T14:33:30.991Z,35.83
2018-11-29T14:37:33.386Z,38.63
2018-11-29T14:41:35.714Z,38.47
2018-11-29T14:45:38.613Z,41.33
2018-11-29T14:49:41.806Z,40.43
2018-11-29T14:53:44.496Z,35.30
2018-11-29T14:57:46.897Z,42.17
2018-11-29T15:01:49.296Z,39.27
2018-11-29T15:05:51.654Z,38.13
2018-11-29T15:09:54.103Z,33.83
2018-11-29T15:13:56.574Z,35.37
2018-11-29T15:17:58.907Z,35.50
2018-11-29T15:22:01.376Z,35.87
2018-11-29T15:26:03.795Z,36.17
2018-11-29T15:30:10.900Z,37.63
2018-11-29T15:34:13.214Z,33.33
2018-11-29T15:38:15.560Z,38.55
2018-11-29T15:42:17.990Z,38.80
2018-11-29T15:46:20.362Z,35.23
2018-11-29T15:50:22.715Z,36.30
2018-11-29T15:54:25.094Z,36.03
2018-11-29T15:58:27.541Z,33.33
2018-11-29T16:02:30.042Z,33.03
2018-11-29T16:06:32.419Z,34.90
2018-11-29T16:10:34.829Z,33.80
2018-11-29T16:14:37.137Z,32.83
2018-11-29T16:18:39.564Z,34.57
2018-11-29T16:22:41.938Z,31.60
2018-11-29T16:26:44.400Z,32.87
2018-11-29T16:30:48.753Z,31.50
2018-11-29T16:34:51.149Z,32.43
2018-11-29T16:38:53.546Z,31.73
2018-11-29T16:42:55.930Z,31.03
2018-11-29T16:46:58.288Z,32.77
2018-11-29T16:51:00.714Z,30.37
2018-11-29T16:55:03.259Z,30.00
2018-11-29T16:59:05.860Z,32.37
2018-11-29T17:03:08.328Z,32.43
2018-11-29T17:07:10.719Z,33.03
2018-11-29T17:11:13.200Z,26.50
2018-11-29T17:15:17.685Z,31.25
2018-11-29T17:19:20.082Z,30.33
2018-11-29T17:23:22.484Z,32.25
2018-11-29T17:27:24.892Z,28.10
2018-11-29T17:31:27.305Z,31.37
2018-11-29T17:35:29.650Z,28.80
2018-11-29T17:39:32.069Z,29.47
2018-11-29T17:43:34.700Z,27.03
2018-11-29T17:47:37.179Z,28.67
2018-11-29T17:51:39.600Z,31.50
2018-11-29T17:55:42.088Z,28.95
2018-11-29T17:59:44.383Z,25.23
2018-11-29T18:03:46.924Z,23.93
2018-11-29T18:07:49.348Z,31.33
2018-11-29T18:11:51.722Z,26.70
2018-11-29T18:15:54.059Z,28.47
2018-11-29T18:19:56.475Z,25.57
2018-11-29T18:23:58.967Z,29.63
2018-11-29T18:28:01.537Z,28.80
2018-11-29T18:32:03.938Z,34.00
2018-11-29T18:36:06.385Z,31.43
2018-11-29T18:40:12.037Z,29.33
2018-11-29T18:44:14.349Z,32.67
2018-11-29T18:48:16.804Z,31.97
2018-11-29T18:52:19.156Z,29.30
2018-11-29T18:56:21.618Z,28.30
2018-11-29T19:00:26.102Z,27.53
2018-11-29T19:04:28.446Z,25.47
2018-11-29T19:08:30.828Z,26.17
2018-11-29T19:12:33.392Z,28.73
2018-11-29T19:16:35.803Z,25.70
2018-11-29T19:20:38.516Z,27.40
2018-11-29T19:24:40.706Z,26.93
2018-11-29T19:28:43.138Z,26.60
2018-11-29T19:32:47.401Z,24.63
2018-11-29T19:36:49.815Z,27.10
2018-11-29T19:40:52.271Z,25.67
2018-11-29T19:44:54.963Z,28.43
2018-11-29T19:48:57.407Z,23.37
2018-11-29T19:53:00.718Z,26.23
2018-11-29T19:57:03.123Z,25.10
2018-11-29T20:01:05.612Z,24.60
2018-11-29T20:05:09.441Z,24.37
2018-11-29T20:09:11.957Z,23.23
2018-11-29T20:13:14.898Z,24.20
2018-11-29T20:17:17.252Z,28.43
2018-11-29T20:21:19.663Z,26.00
2018-11-29T20:25:23.417Z,28.87
2018-11-29T20:29:25.912Z,26.63
2018-11-29T20:33:28.397Z,30.37
2018-11-29T20:37:30.937Z,23.00
2018-11-29T20:41:33.354Z,28.17
2018-11-29T20:45:40.400Z,26.43
2018-11-29T20:49:42.820Z,24.40
2018-11-29T20:53:45.238Z,26.50
2018-11-29T20:57:47.623Z,25.40
2018-11-29T21:01:50.067Z,25.43
2018-11-29T21:05:52.556Z,23.00
2018-11-29T21:09:55.435Z,22.87
2018-11-29T21:13:58.376Z,26.47
2018-11-29T21:18:00.790Z,23.67
2018-11-29T21:22:03.253Z,22.50
2018-11-29T21:26:05.796Z,23.93
2018-11-29T21:30:10.371Z,20.70
2018-11-29T21:34:13.405Z,20.57
2018-11-29T21:38:17.959Z,23.37
2018-11-29T21:42:20.410Z,22.33
2018-11-29T21:46:22.796Z,21.80
2018-11-29T21:50:25.186Z,23.70
2018-11-29T21:54:27.526Z,20.93
2018-11-29T21:58:29.955Z,21.40
2018-11-29T22:02:32.319Z,22.67
2018-11-29T22:06:34.686Z,23.90
2018-11-29T22:10:37.048Z,22.43
2018-11-29T22:14:39.381Z,21.97
2018-11-29T22:18:41.816Z,21.43
2018-11-29T22:22:44.195Z,22.67
2018-11-29T22:26:46.535Z,22.73
2018-11-29T22:30:48.939Z,20.40
2018-11-29T22:34:51.315Z,22.23
2018-11-29T22:38:53.674Z,22.63
2018-11-29T22:42:56.054Z,21.30
2018-11-29T22:46:58.435Z,22.23
2018-11-29T22:51:00.764Z,23.53
2018-11-29T22:55:03.269Z,21.23
2018-11-29T22:59:05.656Z,22.60
2018-11-29T23:03:08.040Z,23.60
2018-11-29T23:07:10.371Z,20.20
2018-11-29T23:11:12.772Z,21.77
2018-11-29T23:15:15.209Z,22.83
2018-11-29T23:19:17.554Z,22.13
2018-11-29T23:23:19.926Z,25.07
2018-11-29T23:27:22.369Z,22.70
2018-11-29T23:31:24.704Z,23.17
2018-11-29T23:35:27.096Z,22.67
2018-11-29T23:39:29.455Z,22.57
2018-11-29T23:43:31.764Z,23.17
2018-11-29T23:47:34.116Z,24.93
2018-11-29T23:51:36.422Z,22.30
2018-11-29T23:55:38.777Z,23.43
2018-11-29T23:59:41.098Z,22.77
